RYR749C EIDW-EDDB
Flight info
| Callsign | RYR749C |
|---|---|
| Flight time | N/A |
| Altitude | 37000 |
| Route | ENDEQ3J ENDEQ Q36 ALAVA Z195 MALUD UL975 WAL M16 DOLAS L603 LAMSO DCT TENLI DCT MAWEQ DCT AMALI DCT BATEL T207 OGBER OGBER1L |
| Aircraft | B738/M-SDE2E3FGHIRWXY/LB1 |
Departure
| Time | 2026-05-01 10:09 |
|---|---|
| Airport | Dublin Airport (EIDW) |
Arrival
| Time | N/A |
|---|---|
| Airport | Berlin Brandenburg Airport (EDDB) |
| Time | Latitude | Longitude | Altitude | Speed | Heading |
|---|---|---|---|---|---|
| 2026-05-01 09:42 | 53.43102 | -6.24829 | 210 ft | 0 kts | 185° |
| 2026-05-01 10:01 | 53.43113 | -6.24827 | 210 ft | 4 kts | 185° |
| 2026-05-01 10:01 | 53.43140 | -6.24823 | 210 ft | 4 kts | 185° |
| 2026-05-01 10:02 | 53.43166 | -6.24819 | 210 ft | 4 kts | 185° |
| 2026-05-01 10:02 | 53.43191 | -6.24820 | 218 ft | 4 kts | 150° |
| 2026-05-01 10:02 | 53.43207 | -6.24850 | 220 ft | 4 kts | 104° |
| 2026-05-01 10:02 | 53.43209 | -6.24866 | 218 ft | 1 kts | 95° |
| 2026-05-01 10:03 | 53.43207 | -6.24825 | 216 ft | 4 kts | 95° |
| 2026-05-01 10:03 | 53.43205 | -6.24796 | 214 ft | 0 kts | 95° |
| 2026-05-01 10:05 | 53.43205 | -6.24795 | 214 ft | 1 kts | 95° |
| 2026-05-01 10:05 | 53.43203 | -6.24763 | 214 ft | 5 kts | 95° |
| 2026-05-01 10:06 | 53.43199 | -6.24703 | 213 ft | 10 kts | 98° |
| 2026-05-01 10:06 | 53.43193 | -6.24567 | 210 ft | 11 kts | 95° |
| 2026-05-01 10:06 | 53.43195 | -6.24446 | 210 ft | 11 kts | 57° |
| 2026-05-01 10:06 | 53.43278 | -6.24405 | 213 ft | 13 kts | 4° |
| 2026-05-01 10:07 | 53.43338 | -6.24339 | 210 ft | 13 kts | 80° |
| 2026-05-01 10:07 | 53.43330 | -6.24159 | 220 ft | 16 kts | 95° |
| 2026-05-01 10:07 | 53.43321 | -6.23991 | 210 ft | 13 kts | 94° |
| 2026-05-01 10:07 | 53.43330 | -6.23889 | 211 ft | 4 kts | 58° |
| 2026-05-01 10:08 | 53.43450 | -6.23850 | 207 ft | 12 kts | 359° |
| 2026-05-01 10:08 | 53.43493 | -6.23995 | 210 ft | 30 kts | 276° |
| 2026-05-01 10:08 | 53.43535 | -6.24772 | 212 ft | 102 kts | 275° |
| 2026-05-01 10:09 | 53.43616 | -6.26312 | 224 ft | 160 kts | 275° |
| 2026-05-01 10:09 | 53.43741 | -6.28270 | 771 ft | 173 kts | 276° |
| 2026-05-01 10:09 | 53.43912 | -6.30320 | 1483 ft | 183 kts | 281° |
| 2026-05-01 10:09 | 53.44723 | -6.32066 | 2163 ft | 208 kts | 326° |
| 2026-05-01 10:10 | 53.45931 | -6.33552 | 2654 ft | 220 kts | 307° |
| 2026-05-01 10:10 | 53.46990 | -6.35496 | 3085 ft | 239 kts | 323° |
| 2026-05-01 10:10 | 53.50256 | -6.35073 | 4107 ft | 264 kts | 41° |
| 2026-05-01 10:11 | 53.51331 | -6.32539 | 4615 ft | 272 kts | 71° |
| 2026-05-01 10:11 | 53.51749 | -6.29451 | 5482 ft | 271 kts | 91° |
| 2026-05-01 10:11 | 53.51792 | -6.26305 | 6450 ft | 271 kts | 94° |
| 2026-05-01 10:11 | 53.51818 | -6.23106 | 7312 ft | 275 kts | 94° |
| 2026-05-01 10:12 | 53.51872 | -6.19870 | 8166 ft | 279 kts | 93° |
| 2026-05-01 10:12 | 53.51954 | -6.16579 | 8795 ft | 283 kts | 93° |
| 2026-05-01 10:12 | 53.52151 | -6.09926 | 9139 ft | 289 kts | 92° |
| 2026-05-01 10:13 | 53.52166 | -6.06537 | 9709 ft | 289 kts | 103° |
| 2026-05-01 10:13 | 53.51734 | -6.03292 | 10629 ft | 286 kts | 110° |
| 2026-05-01 10:13 | 53.51205 | -5.99932 | 10921 ft | 310 kts | 109° |
| 2026-05-01 10:14 | 53.50092 | -5.92533 | 11970 ft | 335 kts | 108° |
| 2026-05-01 10:14 | 53.49531 | -5.88664 | 12806 ft | 338 kts | 108° |
| 2026-05-01 10:14 | 53.48981 | -5.84867 | 13601 ft | 341 kts | 108° |
| 2026-05-01 10:14 | 53.48451 | -5.80952 | 14337 ft | 346 kts | 107° |
| 2026-05-01 10:15 | 53.47952 | -5.76927 | 15055 ft | 350 kts | 106° |
| 2026-05-01 10:15 | 53.47462 | -5.72910 | 15765 ft | 353 kts | 106° |
| 2026-05-01 10:15 | 53.46965 | -5.68857 | 16472 ft | 357 kts | 107° |
| 2026-05-01 10:15 | 53.46458 | -5.64762 | 17146 ft | 361 kts | 107° |
| 2026-05-01 10:16 | 53.45941 | -5.60621 | 17829 ft | 364 kts | 107° |
| 2026-05-01 10:16 | 53.45415 | -5.56443 | 18504 ft | 368 kts | 107° |
| 2026-05-01 10:16 | 53.44421 | -5.47934 | 19705 ft | 377 kts | 101° |
| 2026-05-01 10:17 | 53.44256 | -5.43515 | 20315 ft | 382 kts | 97° |
| 2026-05-01 10:17 | 53.44138 | -5.34527 | 21515 ft | 388 kts | 97° |
| 2026-05-01 10:17 | 53.44056 | -5.29987 | 22086 ft | 391 kts | 97° |
| 2026-05-01 10:18 | 53.43819 | -5.20811 | 23219 ft | 397 kts | 98° |
| 2026-05-01 10:18 | 53.43686 | -5.16177 | 23738 ft | 400 kts | 98° |
| 2026-05-01 10:18 | 53.43549 | -5.11489 | 24109 ft | 405 kts | 98° |
| 2026-05-01 10:19 | 53.43411 | -5.06749 | 24527 ft | 408 kts | 98° |
| 2026-05-01 10:19 | 53.43272 | -5.01974 | 24996 ft | 410 kts | 98° |
| 2026-05-01 10:19 | 53.43133 | -4.97192 | 25457 ft | 412 kts | 98° |
| 2026-05-01 10:20 | 53.42843 | -4.87527 | 26298 ft | 418 kts | 98° |
| 2026-05-01 10:20 | 53.42689 | -4.82650 | 26704 ft | 420 kts | 98° |
| 2026-05-01 10:20 | 53.42523 | -4.77746 | 27117 ft | 423 kts | 98° |
| 2026-05-01 10:20 | 53.42351 | -4.72809 | 27510 ft | 425 kts | 98° |
| 2026-05-01 10:21 | 53.42175 | -4.67842 | 27898 ft | 428 kts | 98° |
| 2026-05-01 10:21 | 53.41819 | -4.57819 | 28655 ft | 433 kts | 98° |
| 2026-05-01 10:21 | 53.41637 | -4.52765 | 29041 ft | 435 kts | 98° |
| 2026-05-01 10:22 | 53.41264 | -4.42565 | 29730 ft | 441 kts | 98° |
| 2026-05-01 10:22 | 53.40878 | -4.32249 | 30391 ft | 446 kts | 98° |
| 2026-05-01 10:23 | 53.40681 | -4.27046 | 30664 ft | 448 kts | 98° |
| 2026-05-01 10:23 | 53.40278 | -4.16614 | 31351 ft | 448 kts | 98° |
| 2026-05-01 10:23 | 53.40075 | -4.11418 | 31763 ft | 446 kts | 97° |
| 2026-05-01 10:24 | 53.39663 | -4.01068 | 32507 ft | 445 kts | 97° |
| 2026-05-01 10:24 | 53.39687 | -3.90682 | 33220 ft | 448 kts | 88° |
| 2026-05-01 10:25 | 53.40307 | -3.80294 | 33923 ft | 447 kts | 88° |
| 2026-05-01 10:25 | 53.40865 | -3.69928 | 34532 ft | 446 kts | 88° |
| 2026-05-01 10:26 | 53.41116 | -3.64755 | 34835 ft | 446 kts | 89° |
| 2026-05-01 10:26 | 53.41307 | -3.59578 | 35113 ft | 444 kts | 93° |
| 2026-05-01 10:26 | 53.40924 | -3.49272 | 35592 ft | 443 kts | 98° |
| 2026-05-01 10:27 | 53.40378 | -3.39003 | 36156 ft | 441 kts | 97° |
| 2026-05-01 10:27 | 53.39894 | -3.28749 | 36628 ft | 442 kts | 97° |
| 2026-05-01 10:28 | 53.39665 | -3.23621 | 36881 ft | 441 kts | 97° |
| 2026-05-01 10:28 | 53.39198 | -3.13355 | 37138 ft | 445 kts | 97° |
| 2026-05-01 10:28 | 53.38981 | -3.08184 | 37144 ft | 446 kts | 96° |
| 2026-05-01 10:29 | 53.38414 | -2.92683 | 37147 ft | 441 kts | 96° |
| 2026-05-01 10:30 | 53.37629 | -2.72298 | 37153 ft | 437 kts | 96° |
| 2026-05-01 10:31 | 53.36801 | -2.52014 | 37151 ft | 436 kts | 97° |
| 2026-05-01 10:32 | 53.36159 | -2.36787 | 37162 ft | 438 kts | 97° |
| 2026-05-01 10:33 | 53.34844 | -2.16514 | 37165 ft | 438 kts | 103° |
| 2026-05-01 10:34 | 53.33160 | -2.01383 | 37148 ft | 440 kts | 103° |
| 2026-05-01 10:34 | 53.32084 | -1.91286 | 37156 ft | 441 kts | 103° |
| 2026-05-01 10:35 | 53.30488 | -1.76117 | 37164 ft | 442 kts | 103° |
| 2026-05-01 10:35 | 53.29412 | -1.66004 | 37158 ft | 441 kts | 103° |
| 2026-05-01 10:36 | 53.27784 | -1.50889 | 37147 ft | 440 kts | 103° |
| 2026-05-01 10:37 | 53.26694 | -1.40845 | 37167 ft | 439 kts | 103° |
| 2026-05-01 10:37 | 53.25048 | -1.25824 | 37171 ft | 438 kts | 103° |
| 2026-05-01 10:38 | 53.23942 | -1.15834 | 37175 ft | 437 kts | 103° |
| 2026-05-01 10:38 | 53.22829 | -1.05861 | 37174 ft | 437 kts | 103° |
| 2026-05-01 10:39 | 53.21711 | -0.95904 | 37172 ft | 436 kts | 104° |
| 2026-05-01 10:39 | 53.20586 | -0.85971 | 37179 ft | 436 kts | 104° |
| 2026-05-01 10:40 | 53.19451 | -0.76043 | 37184 ft | 435 kts | 104° |
| 2026-05-01 10:40 | 53.18505 | -0.67809 | 37187 ft | 435 kts | 104° |
| 2026-05-01 10:41 | 53.17359 | -0.57902 | 37187 ft | 435 kts | 104° |
| 2026-05-01 10:42 | 53.15617 | -0.42970 | 37185 ft | 436 kts | 104° |
| 2026-05-01 10:42 | 53.14450 | -0.33067 | 37183 ft | 436 kts | 104° |
| 2026-05-01 10:43 | 53.13273 | -0.23155 | 37187 ft | 436 kts | 104° |
| 2026-05-01 10:43 | 53.12088 | -0.13249 | 37185 ft | 436 kts | 104° |
| 2026-05-01 10:44 | 53.10895 | -0.03348 | 37183 ft | 437 kts | 104° |
| 2026-05-01 10:44 | 53.09693 | 0.06555 | 37194 ft | 436 kts | 105° |
| 2026-05-01 10:45 | 53.08484 | 0.16443 | 37187 ft | 435 kts | 105° |
| 2026-05-01 10:45 | 53.07271 | 0.26292 | 37189 ft | 434 kts | 105° |
| 2026-05-01 10:46 | 53.06053 | 0.36112 | 37195 ft | 433 kts | 105° |
| 2026-05-01 10:46 | 53.04833 | 0.45874 | 37192 ft | 432 kts | 105° |
| 2026-05-01 10:47 | 53.03604 | 0.55638 | 37188 ft | 431 kts | 105° |
| 2026-05-01 10:47 | 53.02370 | 0.65372 | 37202 ft | 430 kts | 105° |
| 2026-05-01 10:48 | 53.01133 | 0.75064 | 37199 ft | 430 kts | 105° |
| 2026-05-01 10:48 | 52.99888 | 0.84756 | 37211 ft | 429 kts | 105° |
| 2026-05-01 10:49 | 52.98637 | 0.94434 | 37210 ft | 429 kts | 105° |
| 2026-05-01 10:49 | 52.97393 | 1.04179 | 37208 ft | 429 kts | 104° |
| 2026-05-01 10:50 | 52.96270 | 1.13911 | 37228 ft | 430 kts | 104° |
| 2026-05-01 10:50 | 52.95160 | 1.23646 | 37227 ft | 430 kts | 104° |
| 2026-05-01 10:51 | 52.94027 | 1.33399 | 37236 ft | 431 kts | 104° |
| 2026-05-01 10:51 | 52.92876 | 1.43169 | 37240 ft | 432 kts | 104° |
| 2026-05-01 10:52 | 52.91715 | 1.52923 | 37227 ft | 433 kts | 104° |
| 2026-05-01 10:52 | 52.90542 | 1.62709 | 37251 ft | 433 kts | 104° |
| 2026-05-01 10:53 | 52.89359 | 1.72507 | 37246 ft | 434 kts | 104° |
| 2026-05-01 10:53 | 52.88167 | 1.82313 | 37255 ft | 434 kts | 104° |
| 2026-05-01 10:54 | 52.86966 | 1.92113 | 37248 ft | 435 kts | 104° |
| 2026-05-01 10:54 | 52.85758 | 2.01908 | 37252 ft | 434 kts | 104° |
| 2026-05-01 10:55 | 52.84542 | 2.11689 | 37258 ft | 434 kts | 104° |
| 2026-05-01 10:55 | 52.83323 | 2.21433 | 37261 ft | 433 kts | 104° |
| 2026-05-01 10:56 | 52.82096 | 2.31173 | 37270 ft | 433 kts | 104° |
| 2026-05-01 10:56 | 52.80862 | 2.40900 | 37264 ft | 432 kts | 104° |
| 2026-05-01 10:57 | 52.79622 | 2.50612 | 37264 ft | 432 kts | 104° |
| 2026-05-01 10:57 | 52.78369 | 2.60302 | 37261 ft | 431 kts | 104° |
| 2026-05-01 10:58 | 52.77112 | 2.69971 | 37273 ft | 431 kts | 104° |
| 2026-05-01 10:58 | 52.75851 | 2.79610 | 37272 ft | 431 kts | 104° |
| 2026-05-01 10:59 | 52.74604 | 2.89278 | 37278 ft | 431 kts | 104° |
| 2026-05-01 10:59 | 52.73363 | 2.98912 | 37278 ft | 431 kts | 104° |
| 2026-05-01 11:00 | 52.72076 | 3.08576 | 37259 ft | 431 kts | 104° |
| 2026-05-01 11:00 | 52.70764 | 3.18181 | 37269 ft | 431 kts | 105° |
| 2026-05-01 11:01 | 52.69442 | 3.27821 | 37263 ft | 431 kts | 105° |
| 2026-05-01 11:01 | 52.68115 | 3.37467 | 37257 ft | 432 kts | 105° |
| 2026-05-01 11:02 | 52.66786 | 3.47078 | 37264 ft | 432 kts | 105° |
| 2026-05-01 11:02 | 52.65442 | 3.56738 | 37257 ft | 432 kts | 104° |
| 2026-05-01 11:03 | 52.64091 | 3.66381 | 37278 ft | 432 kts | 104° |
| 2026-05-01 11:03 | 52.62736 | 3.75990 | 37277 ft | 433 kts | 104° |
| 2026-05-01 11:04 | 52.61367 | 3.85640 | 37289 ft | 433 kts | 105° |
| 2026-05-01 11:04 | 52.59995 | 3.95255 | 37285 ft | 433 kts | 105° |
| 2026-05-01 11:05 | 52.58609 | 4.04904 | 37283 ft | 433 kts | 105° |
| 2026-05-01 11:05 | 52.57216 | 4.14540 | 37285 ft | 433 kts | 105° |
| 2026-05-01 11:06 | 52.55816 | 4.24167 | 37290 ft | 433 kts | 105° |
| 2026-05-01 11:06 | 52.54408 | 4.33783 | 37293 ft | 433 kts | 105° |
| 2026-05-01 11:07 | 52.52279 | 4.48207 | 37296 ft | 433 kts | 105° |
| 2026-05-01 11:07 | 52.50853 | 4.57798 | 37286 ft | 433 kts | 105° |
| 2026-05-01 11:08 | 52.49419 | 4.67387 | 37301 ft | 432 kts | 105° |
| 2026-05-01 11:09 | 52.47255 | 4.81757 | 37298 ft | 432 kts | 105° |
| 2026-05-01 11:09 | 52.45808 | 4.91290 | 37291 ft | 432 kts | 106° |
| 2026-05-01 11:10 | 52.43616 | 5.05616 | 37293 ft | 432 kts | 105° |
| 2026-05-01 11:10 | 52.42146 | 5.15162 | 37300 ft | 432 kts | 105° |
| 2026-05-01 11:11 | 52.40671 | 5.24680 | 37291 ft | 432 kts | 106° |
| 2026-05-01 11:11 | 52.39184 | 5.34219 | 37296 ft | 433 kts | 105° |
| 2026-05-01 11:12 | 52.37689 | 5.43752 | 37290 ft | 433 kts | 106° |
| 2026-05-01 11:12 | 52.36192 | 5.53266 | 37289 ft | 433 kts | 106° |
| 2026-05-01 11:13 | 52.34679 | 5.62783 | 37307 ft | 434 kts | 106° |
| 2026-05-01 11:13 | 52.33160 | 5.72305 | 37306 ft | 434 kts | 106° |
| 2026-05-01 11:14 | 52.31624 | 5.81868 | 37316 ft | 435 kts | 106° |
| 2026-05-01 11:14 | 52.30084 | 5.91413 | 37309 ft | 436 kts | 105° |
| 2026-05-01 11:15 | 52.28532 | 6.00985 | 37308 ft | 436 kts | 105° |
| 2026-05-01 11:15 | 52.26974 | 6.10546 | 37313 ft | 437 kts | 105° |
| 2026-05-01 11:16 | 52.25402 | 6.20136 | 37318 ft | 437 kts | 105° |
| 2026-05-01 11:16 | 52.24578 | 6.28321 | 37308 ft | 438 kts | 90° |
| 2026-05-01 11:17 | 52.24817 | 6.39875 | 37315 ft | 439 kts | 88° |
| 2026-05-01 11:17 | 52.25033 | 6.48143 | 37310 ft | 439 kts | 88° |
| 2026-05-01 11:18 | 52.25289 | 6.58147 | 37318 ft | 439 kts | 85° |
| 2026-05-01 11:18 | 52.26035 | 6.68033 | 37321 ft | 438 kts | 81° |
| 2026-05-01 11:19 | 52.26948 | 6.77883 | 37328 ft | 438 kts | 81° |
| 2026-05-01 11:19 | 52.27814 | 6.87668 | 37328 ft | 438 kts | 82° |
| 2026-05-01 11:20 | 52.28636 | 6.97527 | 37338 ft | 438 kts | 82° |
| 2026-05-01 11:20 | 52.29428 | 7.07338 | 37332 ft | 438 kts | 82° |
| 2026-05-01 11:21 | 52.30211 | 7.17167 | 37334 ft | 438 kts | 82° |
| 2026-05-01 11:21 | 52.30988 | 7.27034 | 37336 ft | 437 kts | 82° |
| 2026-05-01 11:22 | 52.31757 | 7.36889 | 37346 ft | 437 kts | 82° |
| 2026-05-01 11:22 | 52.32518 | 7.46747 | 37347 ft | 437 kts | 82° |
| 2026-05-01 11:23 | 52.33273 | 7.56661 | 37347 ft | 437 kts | 82° |
| 2026-05-01 11:23 | 52.34015 | 7.66475 | 37352 ft | 436 kts | 82° |
| 2026-05-01 11:24 | 52.34749 | 7.76322 | 37349 ft | 436 kts | 82° |
| 2026-05-01 11:25 | 52.35836 | 7.91091 | 37352 ft | 436 kts | 82° |
| 2026-05-01 11:25 | 52.36902 | 8.05836 | 37371 ft | 436 kts | 81° |
| 2026-05-01 11:26 | 52.37951 | 8.20619 | 37376 ft | 436 kts | 82° |
| 2026-05-01 11:27 | 52.38640 | 8.30488 | 37379 ft | 436 kts | 82° |
| 2026-05-01 11:27 | 52.39320 | 8.40359 | 37384 ft | 436 kts | 82° |
| 2026-05-01 11:28 | 52.40001 | 8.50306 | 37382 ft | 437 kts | 83° |
| 2026-05-01 11:28 | 52.40664 | 8.60175 | 37381 ft | 437 kts | 83° |
| 2026-05-01 11:29 | 52.41645 | 8.74989 | 37390 ft | 437 kts | 83° |
| 2026-05-01 11:30 | 52.42612 | 8.89850 | 37394 ft | 437 kts | 83° |
| 2026-05-01 11:30 | 52.43244 | 8.99762 | 37407 ft | 437 kts | 83° |
| 2026-05-01 11:31 | 52.43869 | 9.09679 | 37398 ft | 438 kts | 84° |
| 2026-05-01 11:31 | 52.44485 | 9.19561 | 37382 ft | 437 kts | 83° |
| 2026-05-01 11:32 | 52.45094 | 9.29480 | 37381 ft | 437 kts | 84° |
| 2026-05-01 11:32 | 52.45696 | 9.39414 | 37005 ft | 442 kts | 84° |
| 2026-05-01 11:32 | 52.45997 | 9.44438 | 36479 ft | 442 kts | 84° |
| 2026-05-01 11:33 | 52.46292 | 9.49408 | 35970 ft | 439 kts | 84° |
| 2026-05-01 11:33 | 52.46585 | 9.54372 | 35476 ft | 435 kts | 84° |
| 2026-05-01 11:33 | 52.46873 | 9.59287 | 35016 ft | 432 kts | 84° |
| 2026-05-01 11:33 | 52.47188 | 9.64171 | 34529 ft | 429 kts | 79° |
| 2026-05-01 11:34 | 52.48091 | 9.68741 | 33991 ft | 428 kts | 62° |
| 2026-05-01 11:34 | 52.49614 | 9.72915 | 33504 ft | 431 kts | 56° |
| 2026-05-01 11:34 | 52.51328 | 9.76993 | 32976 ft | 437 kts | 54° |
| 2026-05-01 11:34 | 52.53105 | 9.81067 | 32455 ft | 439 kts | 54° |
| 2026-05-01 11:35 | 52.54903 | 9.85124 | 31930 ft | 439 kts | 54° |
| 2026-05-01 11:35 | 52.56698 | 9.89148 | 31440 ft | 439 kts | 54° |
| 2026-05-01 11:35 | 52.58495 | 9.93149 | 30945 ft | 438 kts | 53° |
| 2026-05-01 11:35 | 52.60316 | 9.97181 | 30446 ft | 438 kts | 54° |
| 2026-05-01 11:36 | 52.62134 | 10.01183 | 29880 ft | 437 kts | 54° |
| 2026-05-01 11:36 | 52.63342 | 10.03852 | 29516 ft | 439 kts | 54° |